Detroit, MI

7:07 PM EST on December 18, 2014 (GMT -0500)
Near I-94/275 | Change Station
CLOSE
Current Station
Personal Weather Station
Location: Romulus, MI
Elevation: 679 ft
Nearby Weather Stations
Active Advisory: Special Statement

Elev 679 ft 42.22 °N, 83.40 °W | Updated 9 seconds ago

Light Snow
Light Snow
31.9 °F
Feels Like 32 °F
N
3.0
Wind Variable Wind from West
Gusts 3.5 mph

Today
High -- | Low -- °F
--% Chance of Precip.
Yesterday
High -- | Low -- °F
Precip. -- in
7:57 AM 5:03 PM
Waning Crescent, 11% visible
Pressure 30.20 in
Visibility 7.0 miles
Clouds Scattered Clouds 1500 ft
Mostly Cloudy 2000 ft
Overcast 3000 ft
Windchill 32 °F
Dew Point 30 °F
Humidity 92%
Rainfall 0.00 in
Snow Depth Not available.
UV 0 out of 12
Pollen .10 out of 12
Air Quality Not available.
Flu Activity Not available.
METAR KDTW 182353Z 29003KT 7SM -SN SCT015 BKN020 OVC030 00/M02 A3018 RMK AO2 SLP227 P0000 60000 T00001022 10006 20000 51004

More Conditions Fewer Conditions

Pressure 30.20 in
Visibility 7.0 miles
Clouds Scattered Clouds 1500 ft
Mostly Cloudy 2000 ft
Overcast 3000 ft
Windchill 32 °F
Dew Point 30 °F
Humidity 92%
Rainfall 0.00 in
Snow Depth Not available.
UV 0 out of 12
Pollen .10 out of 12
Air Quality Not available.
Flu Activity Not available.
METAR KDTW 182353Z 29003KT 7SM -SN SCT015 BKN020 OVC030 00/M02 A3018 RMK AO2 SLP227 P0000 60000 T00001022 10006 20000 51004

More Conditions Fewer Conditions

10-Day Weather Forecast

Almanac

Astronomy

Dec. 18, 2014 Rise Set
Actual Time
Civil Twilight
Nautical Twilight
Astronomical Twilight
Moon
Length of Visible Light
Length of Day
Tomorrow will be .
, % of the Moon is Illuminated

Today's Extremes

State Highs State Lows

Community

WunderPhotos

Upload Photos

1,779,012 photos uploaded!

WunderBlogs® & News

Nearby

Air Quality

  Air Quality AQ Index Pollutant
Not available.

Snow Depth

Station Depth Elevation

Earthquake Activity

City Distance Mag. Time & Date
Minimum magnitude displayed is 2.5.

Coastal Water Temperatures

Place Temperature

Nearby Weather Stations